sensor_id;sensor_type;location;lat;lon;timestamp;P1;durP1;ratioP1;P2;durP2;ratioP2
84329;SDS011;74510;42.676;23.432;2024-02-16T00:02:23;58.65;;;23.52;;
84329;SDS011;74510;42.676;23.432;2024-02-16T00:04:48;51.85;;;24.17;;
84329;SDS011;74510;42.676;23.432;2024-02-16T00:07:14;51.97;;;23.38;;
84329;SDS011;74510;42.676;23.432;2024-02-16T00:09:39;32.70;;;15.85;;
84329;SDS011;74510;42.676;23.432;2024-02-16T00:12:05;29.88;;;15.35;;
84329;SDS011;74510;42.676;23.432;2024-02-16T00:14:31;43.15;;;18.23;;
84329;SDS011;74510;42.676;23.432;2024-02-16T00:16:56;34.15;;;15.70;;
84329;SDS011;74510;42.676;23.432;2024-02-16T00:19:21;33.60;;;15.63;;
84329;SDS011;74510;42.676;23.432;2024-02-16T00:21:47;40.55;;;17.05;;
84329;SDS011;74510;42.676;23.432;2024-02-16T00:24:12;37.15;;;17.95;;
84329;SDS011;74510;42.676;23.432;2024-02-16T00:26:38;36.20;;;17.73;;
84329;SDS011;74510;42.676;23.432;2024-02-16T00:29:06;37.28;;;18.40;;
84329;SDS011;74510;42.676;23.432;2024-02-16T00:31:32;39.22;;;19.45;;
84329;SDS011;74510;42.676;23.432;2024-02-16T00:33:57;37.13;;;18.85;;
84329;SDS011;74510;42.676;23.432;2024-02-16T00:36:23;39.58;;;18.33;;
84329;SDS011;74510;42.676;23.432;2024-02-16T00:38:49;39.60;;;18.98;;
84329;SDS011;74510;42.676;23.432;2024-02-16T00:41:18;34.17;;;16.58;;
84329;SDS011;74510;42.676;23.432;2024-02-16T00:43:44;35.33;;;17.00;;
84329;SDS011;74510;42.676;23.432;2024-02-16T00:46:10;32.42;;;16.42;;
84329;SDS011;74510;42.676;23.432;2024-02-16T00:48:36;27.70;;;15.30;;
84329;SDS011;74510;42.676;23.432;2024-02-16T00:51:01;35.78;;;16.10;;
84329;SDS011;74510;42.676;23.432;2024-02-16T00:53:27;24.10;;;13.82;;
84329;SDS011;74510;42.676;23.432;2024-02-16T00:55:52;28.98;;;14.25;;
84329;SDS011;74510;42.676;23.432;2024-02-16T00:58:17;28.95;;;14.48;;
84329;SDS011;74510;42.676;23.432;2024-02-16T01:00:44;27.65;;;14.57;;
84329;SDS011;74510;42.676;23.432;2024-02-16T01:03:10;26.70;;;14.70;;
84329;SDS011;74510;42.676;23.432;2024-02-16T01:05:37;26.13;;;14.18;;
84329;SDS011;74510;42.676;23.432;2024-02-16T01:08:03;30.27;;;14.50;;
84329;SDS011;74510;42.676;23.432;2024-02-16T01:10:28;33.78;;;16.95;;
84329;SDS011;74510;42.676;23.432;2024-02-16T01:12:54;37.53;;;17.85;;
84329;SDS011;74510;42.676;23.432;2024-02-16T01:15:21;34.13;;;18.48;;
84329;SDS011;74510;42.676;23.432;2024-02-16T01:17:46;30.85;;;15.43;;
84329;SDS011;74510;42.676;23.432;2024-02-16T01:20:12;32.92;;;16.52;;
84329;SDS011;74510;42.676;23.432;2024-02-16T01:22:37;31.02;;;14.52;;
84329;SDS011;74510;42.676;23.432;2024-02-16T01:25:04;26.83;;;15.15;;
84329;SDS011;74510;42.676;23.432;2024-02-16T01:27:30;29.52;;;14.65;;
84329;SDS011;74510;42.676;23.432;2024-02-16T01:29:57;27.60;;;14.48;;
84329;SDS011;74510;42.676;23.432;2024-02-16T01:32:22;32.17;;;14.95;;
84329;SDS011;74510;42.676;23.432;2024-02-16T01:34:47;33.70;;;16.58;;
84329;SDS011;74510;42.676;23.432;2024-02-16T01:37:15;29.67;;;13.93;;
84329;SDS011;74510;42.676;23.432;2024-02-16T01:39:40;30.15;;;14.75;;
84329;SDS011;74510;42.676;23.432;2024-02-16T01:42:06;31.55;;;16.05;;
84329;SDS011;74510;42.676;23.432;2024-02-16T01:44:31;31.48;;;14.73;;
84329;SDS011;74510;42.676;23.432;2024-02-16T01:46:56;36.35;;;16.15;;
84329;SDS011;74510;42.676;23.432;2024-02-16T01:49:22;29.80;;;13.90;;
84329;SDS011;74510;42.676;23.432;2024-02-16T01:51:48;28.27;;;14.77;;
84329;SDS011;74510;42.676;23.432;2024-02-16T01:54:14;28.95;;;15.02;;
84329;SDS011;74510;42.676;23.432;2024-02-16T01:56:42;31.73;;;15.95;;
84329;SDS011;74510;42.676;23.432;2024-02-16T01:59:09;28.73;;;14.68;;
84329;SDS011;74510;42.676;23.432;2024-02-16T02:01:34;34.75;;;16.13;;
84329;SDS011;74510;42.676;23.432;2024-02-16T02:04:00;31.92;;;15.25;;
84329;SDS011;74510;42.676;23.432;2024-02-16T02:06:26;38.05;;;16.77;;
84329;SDS011;74510;42.676;23.432;2024-02-16T02:08:52;25.20;;;14.00;;
84329;SDS011;74510;42.676;23.432;2024-02-16T02:11:17;28.25;;;13.15;;
84329;SDS011;74510;42.676;23.432;2024-02-16T02:13:43;27.15;;;11.80;;
84329;SDS011;74510;42.676;23.432;2024-02-16T02:16:09;38.03;;;16.42;;
84329;SDS011;74510;42.676;23.432;2024-02-16T02:18:35;20.25;;;10.55;;
84329;SDS011;74510;42.676;23.432;2024-02-16T02:21:00;14.75;;;8.07;;
84329;SDS011;74510;42.676;23.432;2024-02-16T02:23:26;16.00;;;9.13;;
84329;SDS011;74510;42.676;23.432;2024-02-16T02:25:51;15.98;;;8.45;;
84329;SDS011;74510;42.676;23.432;2024-02-16T02:28:17;15.70;;;9.32;;
84329;SDS011;74510;42.676;23.432;2024-02-16T02:30:42;16.67;;;8.32;;
84329;SDS011;74510;42.676;23.432;2024-02-16T02:33:10;15.43;;;8.82;;
84329;SDS011;74510;42.676;23.432;2024-02-16T02:35:37;19.60;;;9.00;;
84329;SDS011;74510;42.676;23.432;2024-02-16T02:38:03;20.27;;;10.82;;
84329;SDS011;74510;42.676;23.432;2024-02-16T02:40:29;24.20;;;10.77;;
84329;SDS011;74510;42.676;23.432;2024-02-16T02:42:55;16.75;;;9.27;;
84329;SDS011;74510;42.676;23.432;2024-02-16T02:45:20;22.17;;;11.93;;
84329;SDS011;74510;42.676;23.432;2024-02-16T02:47:46;28.13;;;14.73;;
84329;SDS011;74510;42.676;23.432;2024-02-16T02:50:11;31.67;;;17.40;;
84329;SDS011;74510;42.676;23.432;2024-02-16T02:52:37;30.17;;;17.33;;
84329;SDS011;74510;42.676;23.432;2024-02-16T02:55:03;25.58;;;14.93;;
84329;SDS011;74510;42.676;23.432;2024-02-16T02:57:28;28.33;;;15.52;;
84329;SDS011;74510;42.676;23.432;2024-02-16T03:00:01;27.52;;;14.63;;
84329;SDS011;74510;42.676;23.432;2024-02-16T03:02:36;25.33;;;14.10;;
84329;SDS011;74510;42.676;23.432;2024-02-16T03:05:03;34.33;;;17.38;;
84329;SDS011;74510;42.676;23.432;2024-02-16T03:07:28;30.42;;;16.42;;
84329;SDS011;74510;42.676;23.432;2024-02-16T03:09:54;27.75;;;14.88;;
84329;SDS011;74510;42.676;23.432;2024-02-16T03:12:19;27.55;;;15.38;;
84329;SDS011;74510;42.676;23.432;2024-02-16T03:14:45;45.03;;;20.40;;
84329;SDS011;74510;42.676;23.432;2024-02-16T03:17:10;39.03;;;18.23;;
84329;SDS011;74510;42.676;23.432;2024-02-16T03:19:35;38.13;;;19.30;;
84329;SDS011;74510;42.676;23.432;2024-02-16T03:22:01;32.58;;;16.60;;
84329;SDS011;74510;42.676;23.432;2024-02-16T03:24:27;28.17;;;15.60;;
84329;SDS011;74510;42.676;23.432;2024-02-16T03:26:53;25.70;;;13.65;;
84329;SDS011;74510;42.676;23.432;2024-02-16T03:29:18;24.58;;;12.82;;
84329;SDS011;74510;42.676;23.432;2024-02-16T03:31:43;30.58;;;13.23;;
84329;SDS011;74510;42.676;23.432;2024-02-16T03:34:09;31.50;;;16.33;;
84329;SDS011;74510;42.676;23.432;2024-02-16T03:36:34;31.63;;;15.05;;
84329;SDS011;74510;42.676;23.432;2024-02-16T03:39:00;35.83;;;16.52;;
84329;SDS011;74510;42.676;23.432;2024-02-16T03:41:25;31.20;;;15.38;;
84329;SDS011;74510;42.676;23.432;2024-02-16T03:43:50;32.53;;;15.40;;
84329;SDS011;74510;42.676;23.432;2024-02-16T03:46:16;29.10;;;13.75;;
84329;SDS011;74510;42.676;23.432;2024-02-16T03:48:42;30.15;;;14.68;;
84329;SDS011;74510;42.676;23.432;2024-02-16T03:51:08;26.90;;;14.65;;
84329;SDS011;74510;42.676;23.432;2024-02-16T03:53:33;28.90;;;15.32;;
84329;SDS011;74510;42.676;23.432;2024-02-16T03:55:59;23.85;;;12.40;;
84329;SDS011;74510;42.676;23.432;2024-02-16T03:58:25;27.50;;;13.55;;
84329;SDS011;74510;42.676;23.432;2024-02-16T04:00:50;27.15;;;14.80;;
84329;SDS011;74510;42.676;23.432;2024-02-16T04:03:17;23.38;;;12.57;;
84329;SDS011;74510;42.676;23.432;2024-02-16T04:05:43;24.25;;;13.45;;
84329;SDS011;74510;42.676;23.432;2024-02-16T04:08:08;24.58;;;12.77;;
84329;SDS011;74510;42.676;23.432;2024-02-16T04:10:34;24.10;;;13.40;;
84329;SDS011;74510;42.676;23.432;2024-02-16T04:13:00;27.10;;;11.98;;
84329;SDS011;74510;42.676;23.432;2024-02-16T04:15:25;26.75;;;14.38;;
84329;SDS011;74510;42.676;23.432;2024-02-16T04:17:51;24.75;;;15.77;;
84329;SDS011;74510;42.676;23.432;2024-02-16T04:20:17;29.95;;;15.60;;
84329;SDS011;74510;42.676;23.432;2024-02-16T04:22:43;36.03;;;16.13;;
84329;SDS011;74510;42.676;23.432;2024-02-16T04:25:09;34.55;;;15.93;;
84329;SDS011;74510;42.676;23.432;2024-02-16T04:27:34;35.95;;;15.30;;
84329;SDS011;74510;42.676;23.432;2024-02-16T04:30:01;25.70;;;12.80;;
84329;SDS011;74510;42.676;23.432;2024-02-16T04:32:27;19.38;;;12.20;;
84329;SDS011;74510;42.676;23.432;2024-02-16T04:34:53;24.67;;;13.48;;
84329;SDS011;74510;42.676;23.432;2024-02-16T04:39:46;37.13;;;18.77;;
84329;SDS011;74510;42.676;23.432;2024-02-16T04:42:12;48.45;;;22.77;;
84329;SDS011;74510;42.676;23.432;2024-02-16T04:44:37;41.75;;;19.88;;
84329;SDS011;74510;42.676;23.432;2024-02-16T04:47:06;35.58;;;19.48;;
84329;SDS011;74510;42.676;23.432;2024-02-16T04:49:31;31.85;;;14.50;;
84329;SDS011;74510;42.676;23.432;2024-02-16T04:51:57;25.70;;;13.63;;
84329;SDS011;74510;42.676;23.432;2024-02-16T04:54:23;28.17;;;14.18;;
84329;SDS011;74510;42.676;23.432;2024-02-16T04:56:49;25.45;;;14.05;;
84329;SDS011;74510;42.676;23.432;2024-02-16T04:59:15;28.70;;;15.85;;
84329;SDS011;74510;42.676;23.432;2024-02-16T05:01:41;30.52;;;16.05;;
84329;SDS011;74510;42.676;23.432;2024-02-16T05:04:08;30.73;;;16.25;;
84329;SDS011;74510;42.676;23.432;2024-02-16T05:06:38;29.52;;;16.35;;
84329;SDS011;74510;42.676;23.432;2024-02-16T05:09:06;21.83;;;12.98;;
84329;SDS011;74510;42.676;23.432;2024-02-16T05:11:32;27.85;;;14.93;;
84329;SDS011;74510;42.676;23.432;2024-02-16T05:13:57;21.45;;;11.98;;
84329;SDS011;74510;42.676;23.432;2024-02-16T05:16:23;27.80;;;16.38;;
84329;SDS011;74510;42.676;23.432;2024-02-16T05:18:49;25.17;;;13.23;;
84329;SDS011;74510;42.676;23.432;2024-02-16T05:21:14;30.80;;;13.10;;
84329;SDS011;74510;42.676;23.432;2024-02-16T05:23:39;24.40;;;14.00;;
84329;SDS011;74510;42.676;23.432;2024-02-16T05:26:05;30.15;;;13.80;;
84329;SDS011;74510;42.676;23.432;2024-02-16T05:28:30;24.40;;;13.75;;
84329;SDS011;74510;42.676;23.432;2024-02-16T05:30:56;26.48;;;14.50;;
84329;SDS011;74510;42.676;23.432;2024-02-16T05:33:22;26.88;;;13.23;;
84329;SDS011;74510;42.676;23.432;2024-02-16T05:35:48;22.73;;;13.05;;
84329;SDS011;74510;42.676;23.432;2024-02-16T05:38:20;30.10;;;15.35;;
84329;SDS011;74510;42.676;23.432;2024-02-16T05:40:57;31.77;;;16.65;;
84329;SDS011;74510;42.676;23.432;2024-02-16T05:43:22;30.08;;;15.40;;
84329;SDS011;74510;42.676;23.432;2024-02-16T05:45:51;38.10;;;20.20;;
84329;SDS011;74510;42.676;23.432;2024-02-16T05:48:16;46.97;;;22.48;;
84329;SDS011;74510;42.676;23.432;2024-02-16T05:50:42;40.65;;;19.85;;
84329;SDS011;74510;42.676;23.432;2024-02-16T05:53:08;41.42;;;19.83;;
84329;SDS011;74510;42.676;23.432;2024-02-16T05:55:35;37.70;;;19.20;;
84329;SDS011;74510;42.676;23.432;2024-02-16T05:58:01;43.10;;;21.83;;
84329;SDS011;74510;42.676;23.432;2024-02-16T06:00:29;52.08;;;26.77;;
84329;SDS011;74510;42.676;23.432;2024-02-16T06:02:56;45.00;;;22.90;;
84329;SDS011;74510;42.676;23.432;2024-02-16T06:05:22;42.70;;;22.10;;
84329;SDS011;74510;42.676;23.432;2024-02-16T06:07:47;43.65;;;23.52;;
84329;SDS011;74510;42.676;23.432;2024-02-16T06:10:13;44.22;;;24.10;;
84329;SDS011;74510;42.676;23.432;2024-02-16T06:12:39;41.30;;;23.10;;
84329;SDS011;74510;42.676;23.432;2024-02-16T06:15:04;46.13;;;22.55;;
84329;SDS011;74510;42.676;23.432;2024-02-16T06:17:30;40.30;;;20.60;;
84329;SDS011;74510;42.676;23.432;2024-02-16T06:19:56;40.03;;;21.88;;
84329;SDS011;74510;42.676;23.432;2024-02-16T06:22:21;40.05;;;20.45;;
84329;SDS011;74510;42.676;23.432;2024-02-16T06:24:46;44.33;;;20.80;;
84329;SDS011;74510;42.676;23.432;2024-02-16T06:27:12;36.40;;;20.90;;
84329;SDS011;74510;42.676;23.432;2024-02-16T06:29:38;38.60;;;22.10;;
84329;SDS011;74510;42.676;23.432;2024-02-16T06:32:03;34.58;;;20.17;;
84329;SDS011;74510;42.676;23.432;2024-02-16T06:34:30;35.45;;;19.55;;
84329;SDS011;74510;42.676;23.432;2024-02-16T06:36:56;39.50;;;21.58;;
84329;SDS011;74510;42.676;23.432;2024-02-16T06:39:21;47.35;;;23.67;;
84329;SDS011;74510;42.676;23.432;2024-02-16T06:41:47;46.08;;;23.67;;
84329;SDS011;74510;42.676;23.432;2024-02-16T06:44:14;39.08;;;21.05;;
84329;SDS011;74510;42.676;23.432;2024-02-16T06:46:43;37.42;;;19.88;;
84329;SDS011;74510;42.676;23.432;2024-02-16T06:49:09;40.47;;;17.90;;
84329;SDS011;74510;42.676;23.432;2024-02-16T06:51:35;37.75;;;20.02;;
84329;SDS011;74510;42.676;23.432;2024-02-16T06:54:02;29.55;;;16.00;;
84329;SDS011;74510;42.676;23.432;2024-02-16T06:56:27;33.25;;;16.85;;
84329;SDS011;74510;42.676;23.432;2024-02-16T06:58:53;35.63;;;19.30;;
84329;SDS011;74510;42.676;23.432;2024-02-16T07:01:19;34.33;;;20.23;;
84329;SDS011;74510;42.676;23.432;2024-02-16T07:03:44;35.80;;;20.15;;
84329;SDS011;74510;42.676;23.432;2024-02-16T07:06:10;36.47;;;19.05;;
84329;SDS011;74510;42.676;23.432;2024-02-16T07:08:38;43.00;;;22.50;;
84329;SDS011;74510;42.676;23.432;2024-02-16T07:11:07;35.22;;;19.63;;
84329;SDS011;74510;42.676;23.432;2024-02-16T07:13:34;44.28;;;20.02;;
84329;SDS011;74510;42.676;23.432;2024-02-16T07:15:59;29.92;;;17.83;;
84329;SDS011;74510;42.676;23.432;2024-02-16T07:18:25;33.45;;;16.42;;
84329;SDS011;74510;42.676;23.432;2024-02-16T07:20:50;34.30;;;18.67;;
84329;SDS011;74510;42.676;23.432;2024-02-16T07:23:16;34.63;;;19.60;;
84329;SDS011;74510;42.676;23.432;2024-02-16T07:25:42;36.83;;;18.98;;
84329;SDS011;74510;42.676;23.432;2024-02-16T07:28:08;28.40;;;16.40;;
84329;SDS011;74510;42.676;23.432;2024-02-16T07:30:35;28.27;;;15.10;;
84329;SDS011;74510;42.676;23.432;2024-02-16T07:33:07;25.42;;;13.10;;
84329;SDS011;74510;42.676;23.432;2024-02-16T07:35:36;27.15;;;16.42;;
84329;SDS011;74510;42.676;23.432;2024-02-16T07:38:03;24.77;;;15.07;;
84329;SDS011;74510;42.676;23.432;2024-02-16T07:40:29;26.20;;;15.07;;
84329;SDS011;74510;42.676;23.432;2024-02-16T07:42:55;23.92;;;13.88;;
84329;SDS011;74510;42.676;23.432;2024-02-16T07:45:21;32.22;;;15.60;;
84329;SDS011;74510;42.676;23.432;2024-02-16T07:47:47;25.60;;;14.20;;
84329;SDS011;74510;42.676;23.432;2024-02-16T07:50:12;28.50;;;14.48;;
84329;SDS011;74510;42.676;23.432;2024-02-16T07:52:38;30.00;;;15.68;;
84329;SDS011;74510;42.676;23.432;2024-02-16T07:55:05;28.98;;;13.90;;
84329;SDS011;74510;42.676;23.432;2024-02-16T07:57:31;24.52;;;13.35;;
84329;SDS011;74510;42.676;23.432;2024-02-16T07:59:57;29.23;;;15.45;;
84329;SDS011;74510;42.676;23.432;2024-02-16T08:02:22;27.88;;;14.88;;
84329;SDS011;74510;42.676;23.432;2024-02-16T08:04:48;24.98;;;14.40;;
84329;SDS011;74510;42.676;23.432;2024-02-16T08:07:14;29.33;;;14.40;;
84329;SDS011;74510;42.676;23.432;2024-02-16T08:09:43;31.65;;;16.23;;
84329;SDS011;74510;42.676;23.432;2024-02-16T08:12:10;27.52;;;13.73;;
84329;SDS011;74510;42.676;23.432;2024-02-16T08:14:37;28.50;;;15.75;;
84329;SDS011;74510;42.676;23.432;2024-02-16T08:17:03;25.38;;;13.63;;
84329;SDS011;74510;42.676;23.432;2024-02-16T08:19:33;25.55;;;14.77;;
84329;SDS011;74510;42.676;23.432;2024-02-16T08:22:02;27.45;;;14.52;;
84329;SDS011;74510;42.676;23.432;2024-02-16T08:24:32;34.08;;;16.25;;
84329;SDS011;74510;42.676;23.432;2024-02-16T08:26:58;33.72;;;15.90;;
84329;SDS011;74510;42.676;23.432;2024-02-16T08:29:24;26.05;;;13.55;;
84329;SDS011;74510;42.676;23.432;2024-02-16T08:31:50;24.65;;;11.98;;
84329;SDS011;74510;42.676;23.432;2024-02-16T08:34:16;28.83;;;13.18;;
84329;SDS011;74510;42.676;23.432;2024-02-16T08:36:46;30.63;;;15.10;;
84329;SDS011;74510;42.676;23.432;2024-02-16T08:39:12;30.25;;;14.38;;
84329;SDS011;74510;42.676;23.432;2024-02-16T08:41:38;32.97;;;16.55;;
84329;SDS011;74510;42.676;23.432;2024-02-16T08:44:04;30.05;;;16.33;;
84329;SDS011;74510;42.676;23.432;2024-02-16T08:46:29;37.15;;;15.63;;
84329;SDS011;74510;42.676;23.432;2024-02-16T08:48:55;31.63;;;16.95;;
84329;SDS011;74510;42.676;23.432;2024-02-16T08:51:21;29.13;;;15.13;;
84329;SDS011;74510;42.676;23.432;2024-02-16T08:53:46;27.52;;;15.23;;
84329;SDS011;74510;42.676;23.432;2024-02-16T08:56:12;21.88;;;12.98;;
84329;SDS011;74510;42.676;23.432;2024-02-16T08:58:37;22.58;;;13.25;;
84329;SDS011;74510;42.676;23.432;2024-02-16T09:01:04;20.83;;;12.20;;
84329;SDS011;74510;42.676;23.432;2024-02-16T09:03:30;21.42;;;11.32;;
84329;SDS011;74510;42.676;23.432;2024-02-16T09:06:01;24.15;;;12.88;;
84329;SDS011;74510;42.676;23.432;2024-02-16T09:08:27;26.85;;;13.63;;
84329;SDS011;74510;42.676;23.432;2024-02-16T09:10:57;26.75;;;17.00;;
84329;SDS011;74510;42.676;23.432;2024-02-16T09:13:23;29.08;;;14.68;;
84329;SDS011;74510;42.676;23.432;2024-02-16T09:15:49;24.85;;;14.98;;
84329;SDS011;74510;42.676;23.432;2024-02-16T09:18:16;23.35;;;14.00;;
84329;SDS011;74510;42.676;23.432;2024-02-16T09:20:42;30.45;;;16.55;;
84329;SDS011;74510;42.676;23.432;2024-02-16T09:23:07;25.95;;;14.73;;
84329;SDS011;74510;42.676;23.432;2024-02-16T09:25:33;29.65;;;15.90;;
84329;SDS011;74510;42.676;23.432;2024-02-16T09:27:59;25.33;;;13.85;;
84329;SDS011;74510;42.676;23.432;2024-02-16T09:30:25;21.33;;;14.70;;
84329;SDS011;74510;42.676;23.432;2024-02-16T09:32:50;24.67;;;14.32;;
84329;SDS011;74510;42.676;23.432;2024-02-16T09:35:15;20.50;;;11.57;;
84329;SDS011;74510;42.676;23.432;2024-02-16T09:37:41;19.88;;;9.73;;
84329;SDS011;74510;42.676;23.432;2024-02-16T09:40:07;18.95;;;12.10;;
84329;SDS011;74510;42.676;23.432;2024-02-16T09:42:36;21.35;;;12.93;;
84329;SDS011;74510;42.676;23.432;2024-02-16T09:47:29;18.25;;;10.45;;
84329;SDS011;74510;42.676;23.432;2024-02-16T09:49:58;17.40;;;9.65;;
84329;SDS011;74510;42.676;23.432;2024-02-16T09:52:23;9.07;;;5.57;;
84329;SDS011;74510;42.676;23.432;2024-02-16T09:54:49;7.40;;;3.92;;
84329;SDS011;74510;42.676;23.432;2024-02-16T09:57:18;10.75;;;6.15;;
84329;SDS011;74510;42.676;23.432;2024-02-16T09:59:44;6.95;;;4.45;;
84329;SDS011;74510;42.676;23.432;2024-02-16T10:02:09;8.15;;;4.68;;
84329;SDS011;74510;42.676;23.432;2024-02-16T10:04:35;8.77;;;4.13;;
84329;SDS011;74510;42.676;23.432;2024-02-16T10:07:01;6.68;;;4.07;;
84329;SDS011;74510;42.676;23.432;2024-02-16T10:09:27;5.72;;;3.80;;
84329;SDS011;74510;42.676;23.432;2024-02-16T10:11:59;6.63;;;3.13;;
84329;SDS011;74510;42.676;23.432;2024-02-16T10:14:25;5.18;;;3.67;;
84329;SDS011;74510;42.676;23.432;2024-02-16T10:17:00;6.55;;;3.47;;
84329;SDS011;74510;42.676;23.432;2024-02-16T10:19:28;5.40;;;3.45;;
84329;SDS011;74510;42.676;23.432;2024-02-16T10:22:04;8.18;;;4.05;;
84329;SDS011;74510;42.676;23.432;2024-02-16T10:24:39;5.10;;;3.70;;
84329;SDS011;74510;42.676;23.432;2024-02-16T10:27:05;6.35;;;3.42;;
84329;SDS011;74510;42.676;23.432;2024-02-16T10:29:32;6.93;;;3.85;;
84329;SDS011;74510;42.676;23.432;2024-02-16T10:31:59;7.95;;;4.38;;
84329;SDS011;74510;42.676;23.432;2024-02-16T10:34:24;7.53;;;4.50;;
84329;SDS011;74510;42.676;23.432;2024-02-16T10:36:50;8.10;;;4.45;;
84329;SDS011;74510;42.676;23.432;2024-02-16T10:39:17;5.90;;;4.20;;
84329;SDS011;74510;42.676;23.432;2024-02-16T10:41:44;6.10;;;4.35;;
84329;SDS011;74510;42.676;23.432;2024-02-16T10:44:10;6.10;;;4.65;;
84329;SDS011;74510;42.676;23.432;2024-02-16T10:46:36;6.53;;;4.20;;
84329;SDS011;74510;42.676;23.432;2024-02-16T10:49:02;7.20;;;4.75;;
84329;SDS011;74510;42.676;23.432;2024-02-16T10:51:38;7.30;;;4.22;;
84329;SDS011;74510;42.676;23.432;2024-02-16T10:54:07;7.18;;;4.57;;
84329;SDS011;74510;42.676;23.432;2024-02-16T10:56:33;5.80;;;4.13;;
84329;SDS011;74510;42.676;23.432;2024-02-16T10:59:03;8.32;;;4.55;;
84329;SDS011;74510;42.676;23.432;2024-02-16T11:01:47;6.32;;;3.85;;
84329;SDS011;74510;42.676;23.432;2024-02-16T11:04:16;7.00;;;4.22;;
84329;SDS011;74510;42.676;23.432;2024-02-16T11:06:46;10.05;;;4.75;;
84329;SDS011;74510;42.676;23.432;2024-02-16T11:09:30;7.10;;;4.22;;
84329;SDS011;74510;42.676;23.432;2024-02-16T11:12:00;6.05;;;4.07;;
84329;SDS011;74510;42.676;23.432;2024-02-16T11:14:36;6.80;;;4.00;;
84329;SDS011;74510;42.676;23.432;2024-02-16T11:19:42;6.63;;;4.45;;
84329;SDS011;74510;42.676;23.432;2024-02-16T11:22:09;7.60;;;4.22;;
84329;SDS011;74510;42.676;23.432;2024-02-16T11:24:42;8.65;;;5.20;;
84329;SDS011;74510;42.676;23.432;2024-02-16T11:27:09;9.48;;;4.88;;
84329;SDS011;74510;42.676;23.432;2024-02-16T11:29:35;7.35;;;4.22;;
84329;SDS011;74510;42.676;23.432;2024-02-16T11:32:03;14.07;;;5.35;;
84329;SDS011;74510;42.676;23.432;2024-02-16T11:34:32;9.73;;;4.10;;
84329;SDS011;74510;42.676;23.432;2024-02-16T11:36:59;10.00;;;4.35;;
84329;SDS011;74510;42.676;23.432;2024-02-16T11:39:25;9.02;;;4.43;;
84329;SDS011;74510;42.676;23.432;2024-02-16T11:44:33;5.72;;;3.67;;
84329;SDS011;74510;42.676;23.432;2024-02-16T11:47:01;6.53;;;3.67;;
84329;SDS011;74510;42.676;23.432;2024-02-16T11:49:28;8.55;;;4.25;;
84329;SDS011;74510;42.676;23.432;2024-02-16T11:51:54;10.68;;;4.30;;
84329;SDS011;74510;42.676;23.432;2024-02-16T11:54:20;7.45;;;4.07;;
84329;SDS011;74510;42.676;23.432;2024-02-16T11:56:46;7.75;;;4.80;;
84329;SDS011;74510;42.676;23.432;2024-02-16T11:59:16;9.25;;;4.18;;
84329;SDS011;74510;42.676;23.432;2024-02-16T12:01:55;7.25;;;4.22;;
84329;SDS011;74510;42.676;23.432;2024-02-16T12:06:56;7.47;;;4.93;;
84329;SDS011;74510;42.676;23.432;2024-02-16T12:09:22;6.10;;;4.15;;
84329;SDS011;74510;42.676;23.432;2024-02-16T12:11:49;10.15;;;5.53;;
84329;SDS011;74510;42.676;23.432;2024-02-16T12:14:16;11.20;;;5.05;;
84329;SDS011;74510;42.676;23.432;2024-02-16T12:16:42;7.25;;;4.50;;
84329;SDS011;74510;42.676;23.432;2024-02-16T12:19:11;8.75;;;4.63;;
84329;SDS011;74510;42.676;23.432;2024-02-16T12:21:38;6.82;;;4.40;;
84329;SDS011;74510;42.676;23.432;2024-02-16T12:24:03;9.77;;;4.43;;
84329;SDS011;74510;42.676;23.432;2024-02-16T12:26:29;7.05;;;4.65;;
84329;SDS011;74510;42.676;23.432;2024-02-16T12:28:54;8.38;;;3.97;;
84329;SDS011;74510;42.676;23.432;2024-02-16T12:31:20;6.93;;;4.68;;
84329;SDS011;74510;42.676;23.432;2024-02-16T12:33:46;7.30;;;4.28;;
84329;SDS011;74510;42.676;23.432;2024-02-16T12:36:12;9.18;;;5.63;;
84329;SDS011;74510;42.676;23.432;2024-02-16T12:38:37;9.32;;;5.80;;
84329;SDS011;74510;42.676;23.432;2024-02-16T12:41:03;6.95;;;4.25;;
84329;SDS011;74510;42.676;23.432;2024-02-16T12:43:29;8.85;;;5.35;;
84329;SDS011;74510;42.676;23.432;2024-02-16T12:45:54;8.15;;;4.55;;
84329;SDS011;74510;42.676;23.432;2024-02-16T12:48:20;7.03;;;4.68;;
84329;SDS011;74510;42.676;23.432;2024-02-16T12:50:45;7.13;;;4.45;;
84329;SDS011;74510;42.676;23.432;2024-02-16T12:53:14;7.93;;;4.95;;
84329;SDS011;74510;42.676;23.432;2024-02-16T12:55:40;7.10;;;4.40;;
84329;SDS011;74510;42.676;23.432;2024-02-16T12:58:05;7.50;;;4.25;;
84329;SDS011;74510;42.676;23.432;2024-02-16T13:00:31;8.95;;;4.93;;
84329;SDS011;74510;42.676;23.432;2024-02-16T13:02:56;8.60;;;5.80;;
84329;SDS011;74510;42.676;23.432;2024-02-16T13:05:22;7.63;;;4.38;;
84329;SDS011;74510;42.676;23.432;2024-02-16T13:07:47;7.03;;;4.18;;
84329;SDS011;74510;42.676;23.432;2024-02-16T13:10:12;9.60;;;5.35;;
84329;SDS011;74510;42.676;23.432;2024-02-16T13:12:38;6.88;;;4.22;;
84329;SDS011;74510;42.676;23.432;2024-02-16T13:15:04;8.13;;;4.20;;
84329;SDS011;74510;42.676;23.432;2024-02-16T13:19:57;8.77;;;4.78;;
84329;SDS011;74510;42.676;23.432;2024-02-16T13:22:31;9.73;;;4.55;;
84329;SDS011;74510;42.676;23.432;2024-02-16T13:24:58;9.50;;;4.57;;
84329;SDS011;74510;42.676;23.432;2024-02-16T13:27:23;6.32;;;4.55;;
84329;SDS011;74510;42.676;23.432;2024-02-16T13:29:48;7.60;;;5.25;;
84329;SDS011;74510;42.676;23.432;2024-02-16T13:32:14;8.05;;;4.55;;
84329;SDS011;74510;42.676;23.432;2024-02-16T13:34:39;7.68;;;4.82;;
84329;SDS011;74510;42.676;23.432;2024-02-16T13:37:05;9.15;;;4.47;;
84329;SDS011;74510;42.676;23.432;2024-02-16T13:39:30;6.05;;;4.38;;
84329;SDS011;74510;42.676;23.432;2024-02-16T13:41:55;7.13;;;4.10;;
84329;SDS011;74510;42.676;23.432;2024-02-16T13:44:22;7.38;;;4.60;;
84329;SDS011;74510;42.676;23.432;2024-02-16T13:46:48;12.90;;;6.65;;
84329;SDS011;74510;42.676;23.432;2024-02-16T13:49:13;8.18;;;5.72;;
84329;SDS011;74510;42.676;23.432;2024-02-16T13:51:42;8.15;;;4.28;;
84329;SDS011;74510;42.676;23.432;2024-02-16T13:54:07;6.18;;;4.40;;
84329;SDS011;74510;42.676;23.432;2024-02-16T13:56:33;8.35;;;3.83;;
84329;SDS011;74510;42.676;23.432;2024-02-16T13:59:00;7.78;;;3.90;;
84329;SDS011;74510;42.676;23.432;2024-02-16T14:01:27;5.97;;;4.00;;
84329;SDS011;74510;42.676;23.432;2024-02-16T14:03:53;7.13;;;4.07;;
84329;SDS011;74510;42.676;23.432;2024-02-16T14:06:18;7.28;;;3.88;;
84329;SDS011;74510;42.676;23.432;2024-02-16T14:08:43;6.78;;;4.10;;
84329;SDS011;74510;42.676;23.432;2024-02-16T14:11:09;9.45;;;4.47;;
84329;SDS011;74510;42.676;23.432;2024-02-16T14:13:35;7.40;;;4.45;;
84329;SDS011;74510;42.676;23.432;2024-02-16T14:16:00;5.72;;;3.75;;
84329;SDS011;74510;42.676;23.432;2024-02-16T14:18:26;10.50;;;5.22;;
84329;SDS011;74510;42.676;23.432;2024-02-16T14:20:51;8.52;;;4.95;;
84329;SDS011;74510;42.676;23.432;2024-02-16T14:23:17;8.65;;;4.60;;
84329;SDS011;74510;42.676;23.432;2024-02-16T14:25:42;15.57;;;6.05;;
84329;SDS011;74510;42.676;23.432;2024-02-16T14:28:07;7.75;;;4.78;;